Main page
METAR-TAF:

METAR-TAF

Airports :

Yangon International Airport

Yangon, Myanmar

latitude: 16-46N, longitude: 096-10E, elevation: 14 m

Current weather observation

The report was made 11 minutes ago, at 04:30 UTC
Wind 8 kt from the East
Temperature 30°C
Humidity 62%
Pressure 1015 hPa
Visibility: 7000 m

METAR: VYYY 030430Z 09008KT 7000 NSC 30/22 Q1015 NOSIG

Time: 11:11 (04:41 UTC)

Forecast

The report was made 5 hours and 41 minutes ago, at 23:00 UTC
Forecast valid from 03 at 00 UTC to 03 at 24 UTC
Wind 7 kt from the East
Visibility: 8000 m
Few clouds at a height of 1800 ft
Scattered clouds at a height of 28000 ft
Becoming
from 03 at 00 UTC to 03 at 02 UTC
Visibility: 4000 m
mist
Becoming
from 03 at 14 UTC to 03 at 16 UTC
Wind 5 kt from the South

TAF: VYYY 022300Z 0300/0324 10007KT 8000 FEW018 SCT280 BECMG 0300/0302 4000 BR BECMG 0314/0316 19005KT

Weather observations and forecasts of more than 4000 airports (METAR and TAF reports).

The available stations are represented by yellow and red dots on the map.

Hover mouse over dot to see the name of the station.

Then click to see weather observations and forecasts.

To change the map : click on the green buttons with a black cross to zoom in, on the green button with a dash to zoom out, or on the green arrows for adjacent maps.


METAR-TAF: